sensor_id;sensor_type;location;lat;lon;timestamp;P1;durP1;ratioP1;P2;durP2;ratioP2
11677;SDS011;5895;41.950;24.372;2024-03-17T00:00:29;6.03;;;5.53;;
11677;SDS011;5895;41.950;24.372;2024-03-17T00:02:57;6.22;;;5.72;;
11677;SDS011;5895;41.950;24.372;2024-03-17T00:05:23;5.90;;;5.40;;
11677;SDS011;5895;41.950;24.372;2024-03-17T00:07:52;6.07;;;5.57;;
11677;SDS011;5895;41.950;24.372;2024-03-17T00:10:18;5.88;;;5.28;;
11677;SDS011;5895;41.950;24.372;2024-03-17T00:12:46;7.05;;;6.35;;
11677;SDS011;5895;41.950;24.372;2024-03-17T00:15:12;8.55;;;6.93;;
11677;SDS011;5895;41.950;24.372;2024-03-17T00:17:40;12.35;;;8.48;;
11677;SDS011;5895;41.950;24.372;2024-03-17T00:20:07;8.30;;;7.53;;
11677;SDS011;5895;41.950;24.372;2024-03-17T00:22:44;6.65;;;6.15;;
11677;SDS011;5895;41.950;24.372;2024-03-17T00:25:13;6.40;;;5.82;;
11677;SDS011;5895;41.950;24.372;2024-03-17T00:27:40;6.75;;;6.15;;
11677;SDS011;5895;41.950;24.372;2024-03-17T00:30:09;7.07;;;6.40;;
11677;SDS011;5895;41.950;24.372;2024-03-17T00:32:39;8.05;;;7.25;;
11677;SDS011;5895;41.950;24.372;2024-03-17T00:35:06;6.75;;;6.15;;
11677;SDS011;5895;41.950;24.372;2024-03-17T00:37:34;7.45;;;6.75;;
11677;SDS011;5895;41.950;24.372;2024-03-17T00:40:00;8.32;;;7.53;;
11677;SDS011;5895;41.950;24.372;2024-03-17T00:42:29;8.07;;;7.38;;
11677;SDS011;5895;41.950;24.372;2024-03-17T00:44:56;7.22;;;6.53;;
11677;SDS011;5895;41.950;24.372;2024-03-17T00:47:25;8.10;;;7.35;;
11677;SDS011;5895;41.950;24.372;2024-03-17T00:49:52;7.60;;;6.90;;
11677;SDS011;5895;41.950;24.372;2024-03-17T00:52:18;7.90;;;7.10;;
11677;SDS011;5895;41.950;24.372;2024-03-17T00:54:46;7.80;;;7.10;;
11677;SDS011;5895;41.950;24.372;2024-03-17T00:57:13;7.55;;;6.85;;
11677;SDS011;5895;41.950;24.372;2024-03-17T00:59:42;7.53;;;6.90;;
11677;SDS011;5895;41.950;24.372;2024-03-17T01:02:09;7.63;;;6.90;;
11677;SDS011;5895;41.950;24.372;2024-03-17T01:04:39;9.55;;;7.03;;
11677;SDS011;5895;41.950;24.372;2024-03-17T01:07:05;7.35;;;6.65;;
11677;SDS011;5895;41.950;24.372;2024-03-17T01:09:33;7.47;;;6.78;;
11677;SDS011;5895;41.950;24.372;2024-03-17T01:11:59;6.50;;;5.90;;
11677;SDS011;5895;41.950;24.372;2024-03-17T01:14:26;6.90;;;6.30;;
11677;SDS011;5895;41.950;24.372;2024-03-17T01:16:56;7.10;;;6.50;;
11677;SDS011;5895;41.950;24.372;2024-03-17T01:19:23;7.35;;;6.65;;
11677;SDS011;5895;41.950;24.372;2024-03-17T01:21:52;7.38;;;6.70;;
11677;SDS011;5895;41.950;24.372;2024-03-17T01:24:27;6.97;;;6.35;;
11677;SDS011;5895;41.950;24.372;2024-03-17T01:26:56;6.90;;;6.30;;
11677;SDS011;5895;41.950;24.372;2024-03-17T01:29:24;7.18;;;6.57;;
11677;SDS011;5895;41.950;24.372;2024-03-17T01:31:51;8.18;;;7.38;;
11677;SDS011;5895;41.950;24.372;2024-03-17T01:34:19;8.20;;;7.43;;
11677;SDS011;5895;41.950;24.372;2024-03-17T01:36:47;6.70;;;6.10;;
11677;SDS011;5895;41.950;24.372;2024-03-17T01:39:13;8.00;;;6.43;;
11677;SDS011;5895;41.950;24.372;2024-03-17T01:41:41;6.95;;;6.35;;
11677;SDS011;5895;41.950;24.372;2024-03-17T01:44:21;6.93;;;6.32;;
11677;SDS011;5895;41.950;24.372;2024-03-17T01:46:49;8.13;;;7.35;;
11677;SDS011;5895;41.950;24.372;2024-03-17T01:49:16;7.30;;;6.70;;
11677;SDS011;5895;41.950;24.372;2024-03-17T01:51:45;6.35;;;5.82;;
11677;SDS011;5895;41.950;24.372;2024-03-17T01:54:13;6.40;;;5.90;;
11677;SDS011;5895;41.950;24.372;2024-03-17T01:56:42;7.50;;;6.85;;
11677;SDS011;5895;41.950;24.372;2024-03-17T01:59:10;7.80;;;7.10;;
11677;SDS011;5895;41.950;24.372;2024-03-17T02:01:37;7.30;;;6.70;;
11677;SDS011;5895;41.950;24.372;2024-03-17T02:04:05;7.72;;;7.03;;
11677;SDS011;5895;41.950;24.372;2024-03-17T02:06:31;8.20;;;7.40;;
11677;SDS011;5895;41.950;24.372;2024-03-17T02:09:03;6.97;;;6.38;;
11677;SDS011;5895;41.950;24.372;2024-03-17T02:11:30;8.50;;;7.70;;
11677;SDS011;5895;41.950;24.372;2024-03-17T02:13:59;7.40;;;6.70;;
11677;SDS011;5895;41.950;24.372;2024-03-17T02:16:26;7.70;;;7.00;;
11677;SDS011;5895;41.950;24.372;2024-03-17T02:18:54;7.07;;;6.47;;
11677;SDS011;5895;41.950;24.372;2024-03-17T02:21:20;7.13;;;6.53;;
11677;SDS011;5895;41.950;24.372;2024-03-17T02:23:51;7.68;;;6.97;;
11677;SDS011;5895;41.950;24.372;2024-03-17T02:26:18;7.30;;;6.60;;
11677;SDS011;5895;41.950;24.372;2024-03-17T02:28:46;7.22;;;6.63;;
11677;SDS011;5895;41.950;24.372;2024-03-17T02:31:13;7.97;;;7.18;;
11677;SDS011;5895;41.950;24.372;2024-03-17T02:33:44;8.23;;;7.43;;
11677;SDS011;5895;41.950;24.372;2024-03-17T02:36:11;8.82;;;8.02;;
11677;SDS011;5895;41.950;24.372;2024-03-17T02:38:42;10.70;;;9.70;;
11677;SDS011;5895;41.950;24.372;2024-03-17T02:41:29;11.82;;;10.63;;
11677;SDS011;5895;41.950;24.372;2024-03-17T02:43:56;8.60;;;7.80;;
11677;SDS011;5895;41.950;24.372;2024-03-17T02:46:23;8.98;;;8.20;;
11677;SDS011;5895;41.950;24.372;2024-03-17T02:48:52;7.88;;;7.18;;
11677;SDS011;5895;41.950;24.372;2024-03-17T02:51:20;8.05;;;7.43;;
11677;SDS011;5895;41.950;24.372;2024-03-17T02:53:49;7.18;;;6.47;;
11677;SDS011;5895;41.950;24.372;2024-03-17T02:56:17;8.77;;;7.85;;
11677;SDS011;5895;41.950;24.372;2024-03-17T02:58:46;7.80;;;7.10;;
11677;SDS011;5895;41.950;24.372;2024-03-17T03:01:16;10.32;;;7.90;;
11677;SDS011;5895;41.950;24.372;2024-03-17T03:03:44;8.90;;;7.88;;
11677;SDS011;5895;41.950;24.372;2024-03-17T03:06:13;9.85;;;8.93;;
11677;SDS011;5895;41.950;24.372;2024-03-17T03:08:44;9.00;;;7.70;;
11677;SDS011;5895;41.950;24.372;2024-03-17T03:11:14;8.65;;;7.80;;
11677;SDS011;5895;41.950;24.372;2024-03-17T03:13:42;8.85;;;8.05;;
11677;SDS011;5895;41.950;24.372;2024-03-17T03:16:13;9.32;;;8.43;;
11677;SDS011;5895;41.950;24.372;2024-03-17T03:18:40;8.13;;;7.43;;
11677;SDS011;5895;41.950;24.372;2024-03-17T03:21:10;8.40;;;7.70;;
11677;SDS011;5895;41.950;24.372;2024-03-17T03:23:37;9.00;;;8.13;;
11677;SDS011;5895;41.950;24.372;2024-03-17T03:26:05;9.50;;;8.07;;
11677;SDS011;5895;41.950;24.372;2024-03-17T03:28:34;9.13;;;8.32;;
11677;SDS011;5895;41.950;24.372;2024-03-17T03:31:02;9.60;;;8.25;;
11677;SDS011;5895;41.950;24.372;2024-03-17T03:33:31;9.32;;;8.43;;
11677;SDS011;5895;41.950;24.372;2024-03-17T03:35:58;8.23;;;7.53;;
11677;SDS011;5895;41.950;24.372;2024-03-17T03:38:25;9.23;;;7.95;;
11677;SDS011;5895;41.950;24.372;2024-03-17T03:40:53;9.60;;;8.75;;
11677;SDS011;5895;41.950;24.372;2024-03-17T03:43:20;9.98;;;9.07;;
11677;SDS011;5895;41.950;24.372;2024-03-17T03:45:47;9.05;;;8.25;;
11677;SDS011;5895;41.950;24.372;2024-03-17T03:48:14;9.10;;;8.20;;
11677;SDS011;5895;41.950;24.372;2024-03-17T03:50:43;9.25;;;8.40;;
11677;SDS011;5895;41.950;24.372;2024-03-17T03:53:10;9.20;;;8.40;;
11677;SDS011;5895;41.950;24.372;2024-03-17T03:55:38;8.82;;;8.13;;
11677;SDS011;5895;41.950;24.372;2024-03-17T03:58:14;9.43;;;8.52;;
11677;SDS011;5895;41.950;24.372;2024-03-17T04:00:41;9.43;;;8.63;;
11677;SDS011;5895;41.950;24.372;2024-03-17T04:03:09;8.88;;;7.85;;
11677;SDS011;5895;41.950;24.372;2024-03-17T04:05:36;8.70;;;7.85;;
11677;SDS011;5895;41.950;24.372;2024-03-17T04:08:05;9.00;;;8.10;;
11677;SDS011;5895;41.950;24.372;2024-03-17T04:10:34;9.50;;;8.60;;
11677;SDS011;5895;41.950;24.372;2024-03-17T04:13:04;8.30;;;7.55;;
11677;SDS011;5895;41.950;24.372;2024-03-17T04:15:32;9.40;;;8.40;;
11677;SDS011;5895;41.950;24.372;2024-03-17T04:17:59;9.93;;;8.93;;
11677;SDS011;5895;41.950;24.372;2024-03-17T04:20:27;10.65;;;9.63;;
11677;SDS011;5895;41.950;24.372;2024-03-17T04:22:54;11.32;;;10.05;;
11677;SDS011;5895;41.950;24.372;2024-03-17T04:25:25;10.35;;;9.43;;
11677;SDS011;5895;41.950;24.372;2024-03-17T04:27:52;11.05;;;9.95;;
11677;SDS011;5895;41.950;24.372;2024-03-17T04:30:19;16.33;;;14.23;;
11677;SDS011;5895;41.950;24.372;2024-03-17T04:32:47;12.00;;;10.70;;
11677;SDS011;5895;41.950;24.372;2024-03-17T04:35:15;9.93;;;9.02;;
11677;SDS011;5895;41.950;24.372;2024-03-17T04:37:42;9.27;;;8.48;;
11677;SDS011;5895;41.950;24.372;2024-03-17T04:40:10;9.18;;;8.35;;
11677;SDS011;5895;41.950;24.372;2024-03-17T04:42:39;10.05;;;8.95;;
11677;SDS011;5895;41.950;24.372;2024-03-17T04:45:07;17.05;;;14.90;;
11677;SDS011;5895;41.950;24.372;2024-03-17T04:47:36;12.13;;;10.88;;
11677;SDS011;5895;41.950;24.372;2024-03-17T04:50:04;12.65;;;11.40;;
11677;SDS011;5895;41.950;24.372;2024-03-17T04:52:32;13.63;;;12.23;;
11677;SDS011;5895;41.950;24.372;2024-03-17T04:55:00;12.88;;;11.57;;
11677;SDS011;5895;41.950;24.372;2024-03-17T04:57:29;15.18;;;13.68;;
11677;SDS011;5895;41.950;24.372;2024-03-17T04:59:58;18.83;;;16.92;;
11677;SDS011;5895;41.950;24.372;2024-03-17T05:02:25;19.23;;;17.20;;
11677;SDS011;5895;41.950;24.372;2024-03-17T05:04:53;19.38;;;17.38;;
11677;SDS011;5895;41.950;24.372;2024-03-17T05:07:20;25.45;;;22.60;;
11677;SDS011;5895;41.950;24.372;2024-03-17T05:09:47;27.27;;;24.48;;
11677;SDS011;5895;41.950;24.372;2024-03-17T05:12:15;25.23;;;22.63;;
11677;SDS011;5895;41.950;24.372;2024-03-17T05:14:42;27.73;;;24.85;;
11677;SDS011;5895;41.950;24.372;2024-03-17T05:17:12;28.85;;;25.77;;
11677;SDS011;5895;41.950;24.372;2024-03-17T05:19:40;28.38;;;24.77;;
11677;SDS011;5895;41.950;24.372;2024-03-17T05:22:07;25.95;;;22.85;;
11677;SDS011;5895;41.950;24.372;2024-03-17T05:24:35;25.00;;;22.00;;
11677;SDS011;5895;41.950;24.372;2024-03-17T05:27:03;23.92;;;21.20;;
11677;SDS011;5895;41.950;24.372;2024-03-17T05:29:30;22.50;;;20.10;;
11677;SDS011;5895;41.950;24.372;2024-03-17T05:31:58;25.48;;;22.98;;
11677;SDS011;5895;41.950;24.372;2024-03-17T05:34:29;26.90;;;24.05;;
11677;SDS011;5895;41.950;24.372;2024-03-17T05:36:57;23.83;;;21.38;;
11677;SDS011;5895;41.950;24.372;2024-03-17T05:39:24;23.42;;;20.20;;
11677;SDS011;5895;41.950;24.372;2024-03-17T05:41:51;23.48;;;21.17;;
11677;SDS011;5895;41.950;24.372;2024-03-17T05:44:19;22.15;;;19.95;;
11677;SDS011;5895;41.950;24.372;2024-03-17T05:46:46;25.00;;;22.40;;
11677;SDS011;5895;41.950;24.372;2024-03-17T05:49:14;25.13;;;21.80;;
11677;SDS011;5895;41.950;24.372;2024-03-17T05:51:42;23.45;;;20.67;;
11677;SDS011;5895;41.950;24.372;2024-03-17T05:54:10;24.60;;;21.98;;
11677;SDS011;5895;41.950;24.372;2024-03-17T05:56:37;25.35;;;22.65;;
11677;SDS011;5895;41.950;24.372;2024-03-17T05:59:05;24.77;;;21.77;;
11677;SDS011;5895;41.950;24.372;2024-03-17T06:01:33;22.95;;;20.73;;
11677;SDS011;5895;41.950;24.372;2024-03-17T06:04:01;23.63;;;21.17;;
11677;SDS011;5895;41.950;24.372;2024-03-17T06:06:31;22.25;;;19.85;;
11677;SDS011;5895;41.950;24.372;2024-03-17T06:09:00;17.75;;;15.95;;
11677;SDS011;5895;41.950;24.372;2024-03-17T06:11:29;16.02;;;14.43;;
11677;SDS011;5895;41.950;24.372;2024-03-17T06:13:59;16.35;;;14.63;;
11677;SDS011;5895;41.950;24.372;2024-03-17T06:16:29;15.68;;;14.07;;
11677;SDS011;5895;41.950;24.372;2024-03-17T06:18:57;18.23;;;15.93;;
11677;SDS011;5895;41.950;24.372;2024-03-17T06:21:24;20.63;;;17.70;;
11677;SDS011;5895;41.950;24.372;2024-03-17T06:23:51;19.02;;;17.13;;
11677;SDS011;5895;41.950;24.372;2024-03-17T06:26:20;17.80;;;15.52;;
11677;SDS011;5895;41.950;24.372;2024-03-17T06:28:48;15.98;;;13.80;;
11677;SDS011;5895;41.950;24.372;2024-03-17T06:31:15;13.60;;;12.25;;
11677;SDS011;5895;41.950;24.372;2024-03-17T06:33:42;14.20;;;12.38;;
11677;SDS011;5895;41.950;24.372;2024-03-17T06:36:09;14.57;;;12.88;;
11677;SDS011;5895;41.950;24.372;2024-03-17T06:38:36;11.85;;;10.75;;
11677;SDS011;5895;41.950;24.372;2024-03-17T06:41:04;11.73;;;10.60;;
11677;SDS011;5895;41.950;24.372;2024-03-17T06:43:33;13.00;;;11.68;;
11677;SDS011;5895;41.950;24.372;2024-03-17T06:46:00;12.23;;;11.02;;
11677;SDS011;5895;41.950;24.372;2024-03-17T06:48:28;11.93;;;10.68;;
11677;SDS011;5895;41.950;24.372;2024-03-17T06:50:55;14.05;;;11.50;;
11677;SDS011;5895;41.950;24.372;2024-03-17T06:53:22;10.38;;;9.35;;
11677;SDS011;5895;41.950;24.372;2024-03-17T06:55:54;11.25;;;9.90;;
11677;SDS011;5895;41.950;24.372;2024-03-17T06:58:22;11.32;;;10.13;;
11677;SDS011;5895;41.950;24.372;2024-03-17T07:00:54;10.45;;;9.30;;
11677;SDS011;5895;41.950;24.372;2024-03-17T07:03:23;10.38;;;9.23;;
11677;SDS011;5895;41.950;24.372;2024-03-17T07:05:51;10.00;;;8.82;;
11677;SDS011;5895;41.950;24.372;2024-03-17T07:08:18;11.95;;;10.63;;
11677;SDS011;5895;41.950;24.372;2024-03-17T07:10:54;12.07;;;10.27;;
11677;SDS011;5895;41.950;24.372;2024-03-17T07:13:22;12.40;;;10.98;;
11677;SDS011;5895;41.950;24.372;2024-03-17T07:15:49;10.63;;;9.52;;
11677;SDS011;5895;41.950;24.372;2024-03-17T07:18:17;14.10;;;12.60;;
11677;SDS011;5895;41.950;24.372;2024-03-17T07:20:44;13.02;;;10.00;;
11677;SDS011;5895;41.950;24.372;2024-03-17T07:23:13;8.85;;;8.02;;
11677;SDS011;5895;41.950;24.372;2024-03-17T07:25:40;10.35;;;8.98;;
11677;SDS011;5895;41.950;24.372;2024-03-17T07:28:07;11.60;;;8.82;;
11677;SDS011;5895;41.950;24.372;2024-03-17T07:30:35;11.70;;;9.57;;
11677;SDS011;5895;41.950;24.372;2024-03-17T07:33:02;11.30;;;9.77;;
11677;SDS011;5895;41.950;24.372;2024-03-17T07:35:31;12.20;;;9.60;;
11677;SDS011;5895;41.950;24.372;2024-03-17T07:37:58;11.25;;;9.63;;
11677;SDS011;5895;41.950;24.372;2024-03-17T07:40:25;10.15;;;8.95;;
11677;SDS011;5895;41.950;24.372;2024-03-17T07:42:52;9.52;;;8.52;;
11677;SDS011;5895;41.950;24.372;2024-03-17T07:45:19;11.02;;;9.48;;
11677;SDS011;5895;41.950;24.372;2024-03-17T07:47:46;10.45;;;9.35;;
11677;SDS011;5895;41.950;24.372;2024-03-17T07:50:13;8.88;;;7.97;;
11677;SDS011;5895;41.950;24.372;2024-03-17T07:52:42;9.30;;;8.05;;
11677;SDS011;5895;41.950;24.372;2024-03-17T07:55:09;8.73;;;7.88;;
11677;SDS011;5895;41.950;24.372;2024-03-17T07:57:36;8.98;;;8.15;;
11677;SDS011;5895;41.950;24.372;2024-03-17T08:00:03;9.75;;;8.75;;
11677;SDS011;5895;41.950;24.372;2024-03-17T08:02:40;12.07;;;9.82;;
11677;SDS011;5895;41.950;24.372;2024-03-17T08:05:07;8.30;;;7.50;;
11677;SDS011;5895;41.950;24.372;2024-03-17T08:07:34;10.18;;;9.05;;
11677;SDS011;5895;41.950;24.372;2024-03-17T08:10:03;10.40;;;9.25;;
11677;SDS011;5895;41.950;24.372;2024-03-17T08:12:31;9.63;;;8.77;;
11677;SDS011;5895;41.950;24.372;2024-03-17T08:14:58;9.07;;;8.15;;
11677;SDS011;5895;41.950;24.372;2024-03-17T08:17:25;9.73;;;7.65;;
11677;SDS011;5895;41.950;24.372;2024-03-17T08:19:52;8.90;;;8.00;;
11677;SDS011;5895;41.950;24.372;2024-03-17T08:22:19;9.88;;;8.45;;
11677;SDS011;5895;41.950;24.372;2024-03-17T08:24:46;9.57;;;8.50;;
11677;SDS011;5895;41.950;24.372;2024-03-17T08:27:15;9.05;;;8.13;;
11677;SDS011;5895;41.950;24.372;2024-03-17T08:29:42;9.38;;;7.80;;
11677;SDS011;5895;41.950;24.372;2024-03-17T08:32:09;8.60;;;7.70;;
11677;SDS011;5895;41.950;24.372;2024-03-17T08:34:36;12.05;;;8.63;;
11677;SDS011;5895;41.950;24.372;2024-03-17T08:37:03;8.63;;;7.07;;
11677;SDS011;5895;41.950;24.372;2024-03-17T08:39:30;8.63;;;7.75;;
11677;SDS011;5895;41.950;24.372;2024-03-17T08:41:57;8.18;;;7.38;;
11677;SDS011;5895;41.950;24.372;2024-03-17T08:44:25;8.88;;;7.82;;
11677;SDS011;5895;41.950;24.372;2024-03-17T08:46:52;8.30;;;7.50;;
11677;SDS011;5895;41.950;24.372;2024-03-17T08:49:19;8.98;;;8.07;;
11677;SDS011;5895;41.950;24.372;2024-03-17T08:51:46;8.23;;;7.40;;
11677;SDS011;5895;41.950;24.372;2024-03-17T08:54:13;7.55;;;6.85;;
11677;SDS011;5895;41.950;24.372;2024-03-17T08:56:40;9.98;;;8.95;;
11677;SDS011;5895;41.950;24.372;2024-03-17T08:59:07;9.20;;;8.30;;
11677;SDS011;5895;41.950;24.372;2024-03-17T09:01:38;7.70;;;7.00;;
11677;SDS011;5895;41.950;24.372;2024-03-17T09:04:05;7.85;;;7.13;;
11677;SDS011;5895;41.950;24.372;2024-03-17T09:06:33;9.07;;;7.28;;
11677;SDS011;5895;41.950;24.372;2024-03-17T09:09:00;8.18;;;7.38;;
11677;SDS011;5895;41.950;24.372;2024-03-17T09:11:28;8.02;;;7.30;;
11677;SDS011;5895;41.950;24.372;2024-03-17T09:13:55;7.60;;;6.90;;
11677;SDS011;5895;41.950;24.372;2024-03-17T09:16:23;8.07;;;7.22;;
11677;SDS011;5895;41.950;24.372;2024-03-17T09:18:52;7.00;;;6.25;;
11677;SDS011;5895;41.950;24.372;2024-03-17T09:21:19;10.18;;;7.03;;
11677;SDS011;5895;41.950;24.372;2024-03-17T09:23:47;8.85;;;7.55;;
11677;SDS011;5895;41.950;24.372;2024-03-17T09:26:15;8.68;;;6.85;;
11677;SDS011;5895;41.950;24.372;2024-03-17T09:28:42;7.82;;;7.03;;
11677;SDS011;5895;41.950;24.372;2024-03-17T09:31:10;9.85;;;6.65;;
11677;SDS011;5895;41.950;24.372;2024-03-17T09:33:37;6.57;;;5.97;;
11677;SDS011;5895;41.950;24.372;2024-03-17T09:36:07;8.05;;;7.25;;
11677;SDS011;5895;41.950;24.372;2024-03-17T09:38:36;8.02;;;7.22;;
11677;SDS011;5895;41.950;24.372;2024-03-17T09:41:03;7.53;;;6.82;;
11677;SDS011;5895;41.950;24.372;2024-03-17T09:43:32;6.25;;;5.75;;
11677;SDS011;5895;41.950;24.372;2024-03-17T09:46:02;5.95;;;5.40;;
11677;SDS011;5895;41.950;24.372;2024-03-17T09:48:29;6.93;;;6.28;;
11677;SDS011;5895;41.950;24.372;2024-03-17T09:50:56;6.63;;;6.03;;
11677;SDS011;5895;41.950;24.372;2024-03-17T09:53:26;5.93;;;5.43;;
11677;SDS011;5895;41.950;24.372;2024-03-17T09:55:57;6.45;;;5.70;;
11677;SDS011;5895;41.950;24.372;2024-03-17T09:58:25;6.13;;;5.55;;
11677;SDS011;5895;41.950;24.372;2024-03-17T10:00:52;6.15;;;5.60;;
11677;SDS011;5895;41.950;24.372;2024-03-17T10:06:12;6.22;;;5.72;;
11677;SDS011;5895;41.950;24.372;2024-03-17T10:08:41;6.00;;;5.50;;
11677;SDS011;5895;41.950;24.372;2024-03-17T10:11:12;6.68;;;6.07;;
11677;SDS011;5895;41.950;24.372;2024-03-17T10:13:41;7.18;;;6.47;;
11677;SDS011;5895;41.950;24.372;2024-03-17T10:16:20;8.20;;;7.40;;
11677;SDS011;5895;41.950;24.372;2024-03-17T10:18:49;7.13;;;6.40;;
11677;SDS011;5895;41.950;24.372;2024-03-17T10:21:25;7.07;;;6.38;;
11677;SDS011;5895;41.950;24.372;2024-03-17T10:24:06;7.28;;;6.57;;
11677;SDS011;5895;41.950;24.372;2024-03-17T10:26:36;6.35;;;5.80;;
11677;SDS011;5895;41.950;24.372;2024-03-17T10:29:04;6.80;;;6.20;;
11677;SDS011;5895;41.950;24.372;2024-03-17T10:31:32;9.20;;;6.57;;
11677;SDS011;5895;41.950;24.372;2024-03-17T10:34:05;7.40;;;6.70;;
11677;SDS011;5895;41.950;24.372;2024-03-17T10:36:32;7.22;;;6.40;;
11677;SDS011;5895;41.950;24.372;2024-03-17T10:38:59;7.03;;;6.20;;
11677;SDS011;5895;41.950;24.372;2024-03-17T10:41:27;7.88;;;5.78;;
11677;SDS011;5895;41.950;24.372;2024-03-17T10:43:58;6.35;;;5.75;;
11677;SDS011;5895;41.950;24.372;2024-03-17T10:46:25;8.00;;;6.28;;
11677;SDS011;5895;41.950;24.372;2024-03-17T10:48:53;5.88;;;5.38;;
11677;SDS011;5895;41.950;24.372;2024-03-17T10:51:20;6.30;;;5.70;;
11677;SDS011;5895;41.950;24.372;2024-03-17T10:53:48;6.53;;;5.90;;
11677;SDS011;5895;41.950;24.372;2024-03-17T10:56:18;6.47;;;5.55;;
11677;SDS011;5895;41.950;24.372;2024-03-17T10:58:48;14.32;;;10.18;;
11677;SDS011;5895;41.950;24.372;2024-03-17T11:01:22;11.50;;;9.25;;
11677;SDS011;5895;41.950;24.372;2024-03-17T11:03:50;8.45;;;7.63;;
11677;SDS011;5895;41.950;24.372;2024-03-17T11:06:18;7.97;;;7.18;;
11677;SDS011;5895;41.950;24.372;2024-03-17T11:08:45;7.68;;;6.47;;
11677;SDS011;5895;41.950;24.372;2024-03-17T11:11:13;9.13;;;6.88;;
11677;SDS011;5895;41.950;24.372;2024-03-17T11:13:40;6.45;;;5.85;;
11677;SDS011;5895;41.950;24.372;2024-03-17T11:16:24;6.28;;;5.68;;
11677;SDS011;5895;41.950;24.372;2024-03-17T11:18:53;5.88;;;5.38;;
11677;SDS011;5895;41.950;24.372;2024-03-17T11:21:32;6.10;;;5.53;;
11677;SDS011;5895;41.950;24.372;2024-03-17T11:24:01;6.57;;;5.97;;
11677;SDS011;5895;41.950;24.372;2024-03-17T11:26:29;5.53;;;5.03;;
11677;SDS011;5895;41.950;24.372;2024-03-17T11:28:57;7.22;;;6.00;;
11677;SDS011;5895;41.950;24.372;2024-03-17T11:34:31;5.05;;;4.60;;
11677;SDS011;5895;41.950;24.372;2024-03-17T11:37:01;5.10;;;4.70;;
11677;SDS011;5895;41.950;24.372;2024-03-17T11:42:12;6.88;;;6.28;;
11677;SDS011;5895;41.950;24.372;2024-03-17T11:44:42;7.43;;;6.60;;
11677;SDS011;5895;41.950;24.372;2024-03-17T11:47:10;5.70;;;5.20;;
11677;SDS011;5895;41.950;24.372;2024-03-17T11:49:38;6.97;;;6.25;;
11677;SDS011;5895;41.950;24.372;2024-03-17T11:52:05;7.90;;;5.75;;
11677;SDS011;5895;41.950;24.372;2024-03-17T11:54:36;6.38;;;5.78;;
11677;SDS011;5895;41.950;24.372;2024-03-17T11:57:04;5.25;;;4.70;;
11677;SDS011;5895;41.950;24.372;2024-03-17T11:59:32;5.78;;;5.28;;
11677;SDS011;5895;41.950;24.372;2024-03-17T12:01:59;5.80;;;5.10;;
11677;SDS011;5895;41.950;24.372;2024-03-17T12:04:28;5.75;;;5.22;;
11677;SDS011;5895;41.950;24.372;2024-03-17T12:06:55;6.25;;;5.65;;
11677;SDS011;5895;41.950;24.372;2024-03-17T12:09:24;7.30;;;6.60;;
11677;SDS011;5895;41.950;24.372;2024-03-17T12:11:51;7.65;;;5.78;;
11677;SDS011;5895;41.950;24.372;2024-03-17T12:14:29;7.75;;;6.47;;
11677;SDS011;5895;41.950;24.372;2024-03-17T12:16:57;6.05;;;5.40;;
11677;SDS011;5895;41.950;24.372;2024-03-17T12:19:25;6.80;;;5.78;;
11677;SDS011;5895;41.950;24.372;2024-03-17T12:21:54;5.50;;;5.00;;
11677;SDS011;5895;41.950;24.372;2024-03-17T12:24:22;7.13;;;5.35;;
11677;SDS011;5895;41.950;24.372;2024-03-17T12:26:51;5.15;;;4.60;;
11677;SDS011;5895;41.950;24.372;2024-03-17T12:29:24;5.65;;;5.13;;
11677;SDS011;5895;41.950;24.372;2024-03-17T12:31:53;6.28;;;5.63;;
11677;SDS011;5895;41.950;24.372;2024-03-17T12:34:20;6.57;;;5.70;;
11677;SDS011;5895;41.950;24.372;2024-03-17T12:36:48;5.20;;;4.80;;
11677;SDS011;5895;41.950;24.372;2024-03-17T12:39:18;6.05;;;5.25;;
11677;SDS011;5895;41.950;24.372;2024-03-17T12:42:00;5.63;;;5.20;;
11677;SDS011;5895;41.950;24.372;2024-03-17T12:44:27;8.27;;;7.38;;
11677;SDS011;5895;41.950;24.372;2024-03-17T12:46:55;5.50;;;5.00;;
11677;SDS011;5895;41.950;24.372;2024-03-17T12:49:22;4.75;;;4.35;;
11677;SDS011;5895;41.950;24.372;2024-03-17T12:51:51;4.72;;;4.22;;
11677;SDS011;5895;41.950;24.372;2024-03-17T12:54:21;5.25;;;4.07;;
11677;SDS011;5895;41.950;24.372;2024-03-17T12:56:50;4.47;;;4.07;;
11677;SDS011;5895;41.950;24.372;2024-03-17T12:59:41;5.43;;;4.40;;
11677;SDS011;5895;41.950;24.372;2024-03-17T13:02:26;5.20;;;4.75;;
11677;SDS011;5895;41.950;24.372;2024-03-17T13:05:07;6.25;;;5.63;;
11677;SDS011;5895;41.950;24.372;2024-03-17T13:07:39;5.97;;;5.32;;
11677;SDS011;5895;41.950;24.372;2024-03-17T13:10:08;5.38;;;4.88;;
11677;SDS011;5895;41.950;24.372;2024-03-17T13:12:36;7.22;;;5.65;;
11677;SDS011;5895;41.950;24.372;2024-03-17T13:15:03;4.88;;;4.18;;
11677;SDS011;5895;41.950;24.372;2024-03-17T13:17:30;5.82;;;5.32;;
11677;SDS011;5895;41.950;24.372;2024-03-17T13:19:59;4.90;;;4.10;;
11677;SDS011;5895;41.950;24.372;2024-03-17T13:22:26;5.50;;;5.00;;
11677;SDS011;5895;41.950;24.372;2024-03-17T13:24:53;5.63;;;4.90;;
11677;SDS011;5895;41.950;24.372;2024-03-17T13:27:21;5.75;;;5.25;;
11677;SDS011;5895;41.950;24.372;2024-03-17T13:29:48;6.05;;;5.45;;
11677;SDS011;5895;41.950;24.372;2024-03-17T13:32:15;6.97;;;5.70;;
11677;SDS011;5895;41.950;24.372;2024-03-17T13:34:43;6.50;;;5.80;;
11677;SDS011;5895;41.950;24.372;2024-03-17T13:37:11;5.38;;;4.88;;
11677;SDS011;5895;41.950;24.372;2024-03-17T13:39:38;5.63;;;5.13;;
11677;SDS011;5895;41.950;24.372;2024-03-17T13:42:05;5.95;;;5.38;;
11677;SDS011;5895;41.950;24.372;2024-03-17T13:44:34;5.78;;;5.15;;
11677;SDS011;5895;41.950;24.372;2024-03-17T13:47:01;6.30;;;5.60;;
11677;SDS011;5895;41.950;24.372;2024-03-17T13:49:28;6.75;;;6.00;;
11677;SDS011;5895;41.950;24.372;2024-03-17T13:51:56;9.07;;;8.02;;
11677;SDS011;5895;41.950;24.372;2024-03-17T13:54:23;9.45;;;7.82;;
11677;SDS011;5895;41.950;24.372;2024-03-17T13:56:50;7.30;;;6.60;;
11677;SDS011;5895;41.950;24.372;2024-03-17T13:59:17;9.43;;;6.82;;
11677;SDS011;5895;41.950;24.372;2024-03-17T14:01:45;7.30;;;6.57;;
11677;SDS011;5895;41.950;24.372;2024-03-17T14:04:14;7.60;;;6.90;;
11677;SDS011;5895;41.950;24.372;2024-03-17T14:06:41;8.45;;;7.55;;
11677;SDS011;5895;41.950;24.372;2024-03-17T14:09:09;7.50;;;6.78;;
11677;SDS011;5895;41.950;24.372;2024-03-17T14:11:36;7.13;;;6.43;;
11677;SDS011;5895;41.950;24.372;2024-03-17T14:14:03;8.95;;;7.43;;
11677;SDS011;5895;41.950;24.372;2024-03-17T14:16:31;7.57;;;6.78;;
11677;SDS011;5895;41.950;24.372;2024-03-17T14:19:00;7.07;;;6.38;;
11677;SDS011;5895;41.950;24.372;2024-03-17T14:21:27;12.07;;;9.77;;
11677;SDS011;5895;41.950;24.372;2024-03-17T14:23:55;10.80;;;8.40;;
11677;SDS011;5895;41.950;24.372;2024-03-17T14:26:22;11.25;;;8.70;;
11677;SDS011;5895;41.950;24.372;2024-03-17T14:28:50;8.20;;;7.22;;
11677;SDS011;5895;41.950;24.372;2024-03-17T14:31:19;9.40;;;6.78;;
11677;SDS011;5895;41.950;24.372;2024-03-17T14:33:46;9.13;;;8.13;;
11677;SDS011;5895;41.950;24.372;2024-03-17T14:36:15;11.82;;;9.77;;
11677;SDS011;5895;41.950;24.372;2024-03-17T14:38:43;11.23;;;8.98;;
11677;SDS011;5895;41.950;24.372;2024-03-17T14:41:10;8.40;;;7.57;;
11677;SDS011;5895;41.950;24.372;2024-03-17T14:43:37;7.50;;;6.72;;
11677;SDS011;5895;41.950;24.372;2024-03-17T14:46:04;12.95;;;9.88;;
11677;SDS011;5895;41.950;24.372;2024-03-17T14:48:33;9.93;;;8.07;;
11677;SDS011;5895;41.950;24.372;2024-03-17T14:51:02;9.63;;;8.23;;
11677;SDS011;5895;41.950;24.372;2024-03-17T14:53:30;7.93;;;7.13;;
11677;SDS011;5895;41.950;24.372;2024-03-17T14:55:57;7.90;;;7.10;;